Awendaw, SC

12:56 PM EDT on May 23, 2015 (GMT -0400)
RAWS | | Change Station
CLOSE
Current Station
Personal Weather Station
Location: Awendaw, SC
Elevation: 19 ft
Nearby Weather Stations

Elev 19 ft 32.97 °N, 79.67 °W | Updated 33 minutes ago

Clear
Clear
78 °F
Feels Like 79 °F
N
7
Wind Variable Wind from NE
Gusts 17.0 mph

Today
High -- | Low -- °F
--% Chance of Precip.
Yesterday
High -- | Low -- °F
Precip. -- in
6:14 AM 8:16 PM
Waxing Crescent, 31% visible
Pressure 30.38 in
Visibility 10.0 miles
Clouds Few 3500 ft
Heat Index 79 °F
Dew Point 56 °F
Humidity 46%
Rainfall in
Snow Depth Not available.
UV 12 out of 12
Pollen 7.00 out of 12
Air Quality Not available.
Flu Activity Local Activity
METAR KCHS 231556Z 04009G17KT 10SM FEW035 26/13 A3038 RMK AO2 SLP286 T02560133

More Conditions Fewer Conditions

Pressure 30.38 in
Visibility 10.0 miles
Clouds Few 3500 ft
Heat Index 79 °F
Dew Point 56 °F
Humidity 46%
Rainfall in
Snow Depth Not available.
UV 12 out of 12
Pollen 7.00 out of 12
Air Quality Not available.
Flu Activity Local Activity
METAR KCHS 231556Z 04009G17KT 10SM FEW035 26/13 A3038 RMK AO2 SLP286 T02560133

More Conditions Fewer Conditions

10-Day Weather Forecast

Almanac

Astronomy

May. 23, 2015 Rise Set
Actual Time
Civil Twilight
Nautical Twilight
Astronomical Twilight
Moon
Length of Visible Light
Length of Day
Tomorrow will be .
, % of the Moon is Illuminated

Today's Extremes

State Highs State Lows

Community

WunderPhotos

Upload Photos

1,823,516 photos uploaded!

WunderBlogs® & News

Nearby

Air Quality

  Air Quality AQ Index Pollutant
Not available.

Snow Depth

Station Depth Elevation

Earthquake Activity

City Distance Mag. Time & Date
Minimum magnitude displayed is 2.5.

Coastal Water Temperatures

Place Temperature

Stations

Nearby Weather Stations

Station Location Temp. Windchill Dew Point Humidity Wind Precip. Elev Updated Type